createdAt,value
2023-10-08T00:00:47.153Z,17.83
2023-10-08T00:01:23.022Z,17.82
2023-10-08T00:01:59.155Z,17.85
2023-10-08T00:02:34.347Z,17.75
2023-10-08T00:03:12.613Z,17.79
2023-10-08T00:03:55.384Z,17.85
2023-10-08T00:04:30.720Z,17.89
2023-10-08T00:05:07.051Z,17.88
2023-10-08T00:05:42.995Z,17.80
2023-10-08T00:06:22.094Z,17.75
2023-10-08T00:06:57.437Z,17.77
2023-10-08T00:07:31.064Z,17.72
2023-10-08T00:08:07.347Z,17.74
2023-10-08T00:08:42.924Z,17.73
2023-10-08T00:09:18.018Z,17.77
2023-10-08T00:09:54.176Z,17.76
2023-10-08T00:10:29.686Z,17.75
2023-10-08T00:11:11.822Z,17.72
2023-10-08T00:11:52.738Z,17.75
2023-10-08T00:12:30.557Z,17.77
2023-10-08T00:13:08.898Z,17.76
2023-10-08T00:13:43.775Z,17.75
2023-10-08T00:14:23.697Z,17.77
2023-10-08T00:14:56.997Z,17.78
2023-10-08T00:15:33.402Z,17.77
2023-10-08T00:16:12.840Z,17.77
2023-10-08T00:16:51.772Z,17.74
2023-10-08T00:17:27.615Z,17.75
2023-10-08T00:18:02.650Z,17.78
2023-10-08T00:18:38.548Z,17.75
2023-10-08T00:19:16.282Z,17.79
2023-10-08T00:19:54.456Z,17.82
2023-10-08T00:20:36.796Z,17.82
2023-10-08T00:21:12.428Z,17.77
2023-10-08T00:21:46.815Z,17.77
2023-10-08T00:22:21.364Z,17.73
2023-10-08T00:22:57.135Z,17.76
2023-10-08T00:23:32.702Z,17.75
2023-10-08T00:24:10.457Z,17.77
2023-10-08T00:25:17.638Z,17.82
2023-10-08T00:25:56.842Z,17.80
2023-10-08T00:26:32.495Z,17.81
2023-10-08T00:27:08.000Z,17.77
2023-10-08T00:27:43.438Z,17.80
2023-10-08T00:28:19.614Z,17.82
2023-10-08T00:28:54.658Z,17.83
2023-10-08T00:29:28.542Z,17.81
2023-10-08T00:30:39.935Z,17.76
2023-10-08T00:31:18.776Z,17.76
2023-10-08T00:31:58.326Z,17.73
2023-10-08T00:33:18.433Z,17.71
2023-10-08T00:34:28.834Z,17.67
2023-10-08T00:35:02.786Z,17.60
2023-10-08T00:35:43.394Z,17.55
2023-10-08T00:36:20.089Z,17.60
2023-10-08T00:36:55.085Z,17.60
2023-10-08T00:37:30.995Z,17.62
2023-10-08T00:38:16.039Z,17.60
2023-10-08T00:38:51.943Z,17.56
2023-10-08T00:39:26.331Z,17.55
2023-10-08T00:40:39.787Z,17.59
2023-10-08T00:41:16.434Z,17.57
2023-10-08T00:42:00.328Z,17.52
2023-10-08T00:42:37.240Z,17.46
2023-10-08T00:43:12.027Z,17.46
2023-10-08T00:43:47.240Z,17.52
2023-10-08T00:44:30.936Z,17.47
2023-10-08T00:45:06.613Z,17.52
2023-10-08T00:45:45.120Z,17.50
2023-10-08T00:46:20.930Z,17.52
2023-10-08T00:47:28.198Z,17.48
2023-10-08T00:48:04.208Z,17.54
2023-10-08T00:48:40.427Z,17.54
2023-10-08T00:49:27.445Z,17.53
2023-10-08T00:50:07.938Z,17.52
2023-10-08T00:50:50.557Z,17.50
2023-10-08T00:51:33.273Z,17.48
2023-10-08T00:53:40.495Z,17.52
2023-10-08T00:54:52.831Z,17.55
2023-10-08T00:55:31.609Z,17.51
2023-10-08T00:56:14.699Z,17.55
2023-10-08T00:56:58.056Z,17.53
2023-10-08T00:57:39.980Z,17.49
2023-10-08T00:58:25.674Z,17.48
2023-10-08T00:59:03.243Z,17.48
2023-10-08T00:59:46.186Z,17.44
2023-10-08T01:00:33.117Z,17.48
2023-10-08T01:01:11.945Z,17.45
2023-10-08T01:02:06.651Z,17.46
2023-10-08T01:02:48.210Z,17.46
2023-10-08T01:03:23.864Z,17.43
2023-10-08T01:03:57.829Z,17.48
2023-10-08T01:04:35.222Z,17.46
2023-10-08T01:05:13.045Z,17.44
2023-10-08T01:05:49.842Z,17.42
2023-10-08T01:06:31.151Z,17.44
2023-10-08T01:07:16.928Z,17.38
2023-10-08T01:07:53.422Z,17.35
2023-10-08T01:08:38.464Z,17.31
2023-10-08T01:09:28.498Z,17.23
2023-10-08T01:10:11.801Z,17.25
2023-10-08T01:10:48.592Z,17.27
2023-10-08T01:11:47.818Z,17.22
2023-10-08T01:12:35.281Z,17.19
2023-10-08T01:13:21.810Z,17.21
2023-10-08T01:13:56.590Z,17.19
2023-10-08T01:14:34.160Z,17.21
2023-10-08T01:15:21.039Z,17.15
2023-10-08T01:15:56.637Z,17.14
2023-10-08T01:16:35.747Z,17.16
2023-10-08T01:17:16.094Z,17.17
2023-10-08T01:18:02.195Z,17.23
2023-10-08T01:18:38.773Z,17.24
2023-10-08T01:19:15.695Z,17.26
2023-10-08T01:19:56.458Z,17.25
2023-10-08T01:20:37.866Z,17.20
2023-10-08T01:21:19.445Z,17.22
2023-10-08T01:21:54.625Z,17.22
2023-10-08T01:22:31.483Z,17.22
2023-10-08T01:23:15.648Z,17.20
2023-10-08T01:23:51.371Z,17.22
2023-10-08T01:24:28.897Z,17.19
2023-10-08T01:25:04.327Z,17.18
2023-10-08T01:25:40.055Z,17.16
2023-10-08T01:26:24.393Z,17.12
2023-10-08T01:26:59.925Z,17.14
2023-10-08T01:27:36.142Z,17.16
2023-10-08T01:28:38.459Z,17.16
2023-10-08T01:29:21.455Z,17.10
2023-10-08T01:29:57.226Z,17.08
2023-10-08T01:30:37.463Z,17.10
2023-10-08T01:31:14.339Z,17.10
2023-10-08T01:31:54.542Z,17.13
2023-10-08T01:32:28.132Z,17.14
2023-10-08T01:33:04.967Z,17.12
2023-10-08T01:33:48.092Z,17.11
2023-10-08T01:34:28.841Z,17.11
2023-10-08T01:35:05.329Z,17.11
2023-10-08T01:36:15.019Z,17.09
2023-10-08T01:36:50.693Z,17.10
2023-10-08T01:37:25.590Z,17.07
2023-10-08T01:38:01.505Z,17.03
2023-10-08T01:38:36.901Z,17.00
2023-10-08T01:39:16.650Z,16.95
2023-10-08T01:39:51.830Z,17.02
2023-10-08T01:40:26.244Z,16.97
2023-10-08T01:41:34.979Z,17.05
2023-10-08T01:42:21.771Z,17.00
2023-10-08T01:42:55.757Z,17.05
2023-10-08T01:43:34.705Z,17.05
2023-10-08T01:44:10.096Z,17.08
2023-10-08T01:44:56.789Z,17.13
2023-10-08T01:45:31.756Z,17.15
2023-10-08T01:46:06.217Z,17.11
2023-10-08T01:46:42.082Z,17.15
2023-10-08T01:47:18.332Z,17.15
2023-10-08T01:47:56.972Z,17.10
2023-10-08T01:48:38.956Z,17.10
2023-10-08T01:49:18.165Z,17.09
2023-10-08T01:50:02.144Z,17.05
2023-10-08T01:50:39.536Z,17.06
2023-10-08T01:51:26.237Z,17.05
2023-10-08T01:52:08.551Z,17.01
2023-10-08T01:52:47.908Z,17.03
2023-10-08T01:53:21.990Z,17.05
2023-10-08T01:53:59.827Z,17.09
2023-10-08T01:54:39.390Z,17.10
2023-10-08T01:55:19.315Z,17.09
2023-10-08T01:55:55.429Z,17.11
2023-10-08T01:56:31.581Z,17.12
2023-10-08T01:57:07.438Z,17.13
2023-10-08T01:57:40.995Z,17.18
2023-10-08T01:58:18.241Z,17.09
2023-10-08T01:58:53.708Z,17.09
2023-10-08T01:59:33.176Z,17.11
2023-10-08T02:00:10.875Z,17.12
2023-10-08T02:01:58.685Z,17.02
2023-10-08T02:02:32.897Z,17.01
2023-10-08T02:03:11.244Z,16.99
2023-10-08T02:03:46.710Z,16.91
2023-10-08T02:04:23.270Z,16.94
2023-10-08T02:04:58.868Z,16.96
2023-10-08T02:05:35.591Z,16.98
2023-10-08T02:06:10.826Z,17.00
2023-10-08T02:06:47.339Z,17.01
2023-10-08T02:07:22.984Z,16.99
2023-10-08T02:08:00.384Z,16.97
2023-10-08T02:08:38.813Z,16.98
2023-10-08T02:09:14.963Z,16.97
2023-10-08T02:09:49.591Z,16.97
2023-10-08T02:10:23.915Z,16.98
2023-10-08T02:10:58.167Z,16.92
2023-10-08T02:11:33.503Z,17.00
2023-10-08T02:12:09.671Z,17.04
2023-10-08T02:12:46.238Z,17.11
2023-10-08T02:13:21.856Z,17.16
2023-10-08T02:13:58.534Z,17.12
2023-10-08T02:14:36.987Z,17.08
2023-10-08T02:15:17.212Z,17.04
2023-10-08T02:15:53.318Z,17.03
2023-10-08T02:16:29.261Z,17.04
2023-10-08T02:17:03.192Z,17.03
2023-10-08T02:17:40.043Z,17.01
2023-10-08T02:18:15.923Z,17.00
2023-10-08T02:18:53.670Z,17.01
2023-10-08T02:19:30.009Z,16.98
2023-10-08T02:20:06.738Z,17.02
2023-10-08T02:20:43.135Z,17.03
2023-10-08T02:21:19.387Z,17.11
2023-10-08T02:21:56.402Z,17.16
2023-10-08T02:22:31.766Z,17.13
2023-10-08T02:23:39.749Z,17.10
2023-10-08T02:24:14.896Z,17.08
2023-10-08T02:24:52.020Z,17.05
2023-10-08T02:25:26.406Z,17.06
2023-10-08T02:26:02.137Z,17.07
2023-10-08T02:26:37.881Z,17.04
2023-10-08T02:27:12.197Z,17.07
2023-10-08T02:27:49.257Z,17.06
2023-10-08T02:28:25.745Z,17.06
2023-10-08T02:29:01.222Z,17.05
2023-10-08T02:29:36.902Z,17.09
2023-10-08T02:30:13.811Z,17.10
2023-10-08T02:30:47.844Z,17.11
2023-10-08T02:31:21.913Z,17.09
2023-10-08T02:31:56.085Z,17.10
2023-10-08T02:32:30.808Z,17.12
2023-10-08T02:34:09.171Z,17.12
2023-10-08T02:35:17.807Z,17.13
2023-10-08T02:35:54.907Z,17.16
2023-10-08T02:36:28.832Z,17.20
2023-10-08T02:37:05.065Z,17.19
2023-10-08T02:37:41.981Z,17.17
2023-10-08T02:38:19.827Z,17.22
2023-10-08T02:38:57.895Z,17.24
2023-10-08T02:39:33.693Z,17.20
2023-10-08T02:40:36.008Z,17.21
2023-10-08T02:41:11.975Z,17.24
2023-10-08T02:41:47.581Z,17.20
2023-10-08T02:42:23.540Z,17.21
2023-10-08T02:43:02.012Z,17.23
2023-10-08T02:43:38.050Z,17.21
2023-10-08T02:44:15.629Z,17.21
2023-10-08T02:44:52.537Z,17.25
2023-10-08T02:45:29.711Z,17.24
2023-10-08T02:46:16.424Z,17.20
2023-10-08T02:46:50.662Z,17.25
2023-10-08T02:47:25.908Z,17.18
2023-10-08T02:48:00.116Z,17.23
2023-10-08T02:48:35.848Z,17.24
2023-10-08T02:49:13.331Z,17.24
2023-10-08T02:49:49.630Z,17.24
2023-10-08T02:50:24.737Z,17.24
2023-10-08T02:51:08.247Z,17.22
2023-10-08T02:51:46.141Z,17.25
2023-10-08T02:52:19.936Z,17.25
2023-10-08T02:52:53.746Z,17.16
2023-10-08T02:53:31.075Z,17.15
2023-10-08T02:54:06.967Z,17.16
2023-10-08T02:54:40.917Z,17.17
2023-10-08T02:55:26.987Z,17.19
2023-10-08T02:56:08.750Z,17.13
2023-10-08T02:56:56.748Z,17.12
2023-10-08T02:57:33.265Z,17.14
2023-10-08T02:58:12.687Z,17.14
2023-10-08T02:58:48.985Z,17.15
2023-10-08T02:59:23.967Z,17.15
2023-10-08T02:59:57.911Z,17.16
2023-10-08T03:00:35.408Z,17.16
2023-10-08T03:01:13.800Z,17.16
2023-10-08T03:01:57.451Z,17.16
2023-10-08T03:02:31.069Z,17.22
2023-10-08T03:03:17.186Z,17.24
2023-10-08T03:04:00.956Z,17.22
2023-10-08T03:04:38.200Z,17.26
2023-10-08T03:05:14.814Z,17.30
2023-10-08T03:05:52.957Z,17.30
2023-10-08T03:06:26.822Z,17.25
2023-10-08T03:07:00.656Z,17.26
2023-10-08T03:07:36.984Z,17.31
2023-10-08T03:08:12.386Z,17.28
2023-10-08T03:08:49.194Z,17.26
2023-10-08T03:09:26.553Z,17.28
2023-10-08T03:10:05.512Z,17.34
2023-10-08T03:10:42.923Z,17.32
2023-10-08T03:11:19.445Z,17.31
2023-10-08T03:11:54.985Z,17.28
2023-10-08T03:12:33.663Z,17.28
2023-10-08T03:13:07.769Z,17.31
2023-10-08T03:13:42.891Z,17.33
2023-10-08T03:14:23.224Z,17.33
2023-10-08T03:15:02.938Z,17.33
2023-10-08T03:15:41.677Z,17.37
2023-10-08T03:16:16.791Z,17.38
2023-10-08T03:16:59.467Z,17.35
2023-10-08T03:17:39.124Z,17.38
2023-10-08T03:18:16.274Z,17.37
2023-10-08T03:18:51.708Z,17.36
2023-10-08T03:19:25.981Z,17.31
2023-10-08T03:20:19.888Z,17.33
2023-10-08T03:20:53.770Z,17.35
2023-10-08T03:21:45.280Z,17.33
2023-10-08T03:22:20.777Z,17.26
2023-10-08T03:22:56.193Z,17.26
2023-10-08T03:23:36.389Z,17.21
2023-10-08T03:24:25.039Z,17.23
2023-10-08T03:24:59.699Z,17.25
2023-10-08T03:25:42.980Z,17.24
2023-10-08T03:27:14.419Z,17.19
2023-10-08T03:28:23.064Z,17.24
2023-10-08T03:28:59.129Z,17.18
2023-10-08T03:29:44.352Z,17.24
2023-10-08T03:30:19.521Z,17.17
2023-10-08T03:31:03.982Z,17.16
2023-10-08T03:31:48.290Z,17.20
2023-10-08T03:32:28.075Z,17.19
2023-10-08T03:33:11.936Z,17.15
2023-10-08T03:33:50.648Z,17.12
2023-10-08T03:34:29.328Z,17.12
2023-10-08T03:35:05.666Z,17.07
2023-10-08T03:35:44.180Z,17.06
2023-10-08T03:36:22.817Z,17.05
2023-10-08T03:37:07.399Z,17.11
2023-10-08T03:37:46.906Z,17.12
2023-10-08T03:38:29.923Z,17.10
2023-10-08T03:39:14.521Z,17.09
2023-10-08T03:39:53.247Z,17.03
2023-10-08T03:40:43.855Z,17.05
2023-10-08T03:41:29.834Z,17.02
2023-10-08T03:42:09.642Z,17.03
2023-10-08T03:42:45.535Z,17.01
2023-10-08T03:43:35.350Z,16.99
2023-10-08T03:44:18.248Z,17.04
2023-10-08T03:45:43.529Z,16.98
2023-10-08T03:47:13.180Z,16.87
2023-10-08T03:47:48.329Z,16.90
2023-10-08T03:48:23.780Z,16.88
2023-10-08T03:49:01.947Z,16.94
2023-10-08T03:49:37.648Z,16.90
2023-10-08T03:50:11.502Z,16.94
2023-10-08T03:50:46.685Z,16.87
2023-10-08T03:51:22.242Z,16.83
2023-10-08T03:51:58.800Z,16.89
2023-10-08T03:52:32.863Z,16.90
2023-10-08T03:53:10.397Z,16.89
2023-10-08T03:54:00.702Z,16.96
2023-10-08T03:55:22.968Z,16.93
2023-10-08T03:56:02.392Z,16.94
2023-10-08T03:57:20.178Z,16.94
2023-10-08T03:57:58.669Z,16.90
2023-10-08T03:59:14.696Z,16.85
2023-10-08T03:59:50.470Z,16.86
2023-10-08T04:00:33.573Z,16.83
2023-10-08T04:01:11.304Z,16.81
2023-10-08T04:01:45.350Z,16.79
2023-10-08T04:02:46.886Z,16.75
2023-10-08T04:03:42.541Z,16.75
2023-10-08T04:04:16.915Z,16.77
2023-10-08T04:04:52.780Z,16.76
2023-10-08T04:05:34.259Z,16.71
2023-10-08T04:06:23.620Z,16.75
2023-10-08T04:07:17.562Z,16.76
2023-10-08T04:08:44.014Z,16.73
2023-10-08T04:09:25.242Z,16.67
2023-10-08T04:10:11.467Z,16.71
2023-10-08T04:11:05.962Z,16.68
2023-10-08T04:12:05.178Z,16.67
2023-10-08T04:12:52.093Z,16.67
2023-10-08T04:13:25.912Z,16.63
2023-10-08T04:14:03.804Z,16.58
2023-10-08T04:14:39.045Z,16.58
2023-10-08T04:15:19.534Z,16.60
2023-10-08T04:15:54.782Z,16.58
2023-10-08T04:16:29.289Z,16.61
2023-10-08T04:17:04.543Z,16.63
2023-10-08T04:17:46.817Z,16.63
2023-10-08T04:18:22.120Z,16.58
2023-10-08T04:18:58.252Z,16.60
2023-10-08T04:19:31.771Z,16.59
2023-10-08T04:20:19.430Z,16.62
2023-10-08T04:21:06.800Z,16.56
2023-10-08T04:21:44.234Z,16.55
2023-10-08T04:22:52.819Z,16.53
2023-10-08T04:23:26.642Z,16.55
2023-10-08T04:23:59.645Z,16.59
2023-10-08T04:24:36.451Z,16.58
2023-10-08T04:25:11.475Z,16.57
2023-10-08T04:25:56.103Z,16.58
2023-10-08T04:26:33.850Z,16.62
2023-10-08T04:27:10.981Z,16.60
2023-10-08T04:27:49.494Z,16.55
2023-10-08T04:28:29.969Z,16.51
2023-10-08T04:29:08.277Z,16.50
2023-10-08T04:29:42.056Z,16.53
2023-10-08T04:30:16.483Z,16.53
2023-10-08T04:32:09.377Z,16.50
2023-10-08T04:32:44.734Z,16.53
2023-10-08T04:33:20.898Z,16.51
2023-10-08T04:34:02.030Z,16.47
2023-10-08T04:34:38.070Z,16.42
2023-10-08T04:35:16.868Z,16.46
2023-10-08T04:36:23.638Z,16.55
2023-10-08T04:37:02.525Z,16.56
2023-10-08T04:37:42.509Z,16.55
2023-10-08T04:38:52.477Z,16.43
2023-10-08T04:39:34.057Z,16.45
2023-10-08T04:40:17.504Z,16.44
2023-10-08T04:41:03.385Z,16.45
2023-10-08T04:41:44.030Z,16.37
2023-10-08T04:42:27.721Z,16.37
2023-10-08T04:43:03.832Z,16.40
2023-10-08T04:43:40.150Z,16.45
2023-10-08T04:44:17.022Z,16.49
2023-10-08T04:44:53.792Z,16.47
2023-10-08T04:45:35.163Z,16.46
2023-10-08T04:46:47.086Z,16.45
2023-10-08T04:47:55.610Z,16.43
2023-10-08T04:48:34.484Z,16.41
2023-10-08T04:49:27.761Z,16.40
2023-10-08T04:50:07.830Z,16.38
2023-10-08T04:50:46.106Z,16.34
2023-10-08T04:51:24.182Z,16.22
2023-10-08T04:52:15.602Z,16.30
2023-10-08T04:52:59.801Z,16.25
2023-10-08T04:53:38.413Z,16.27
2023-10-08T04:54:19.966Z,16.29
2023-10-08T04:54:55.501Z,16.26
2023-10-08T04:55:31.358Z,16.28
2023-10-08T04:56:09.194Z,16.29
2023-10-08T04:56:45.453Z,16.27
2023-10-08T04:57:23.333Z,16.24
2023-10-08T04:57:59.604Z,16.24
2023-10-08T04:58:41.623Z,16.29
2023-10-08T04:59:15.826Z,16.29
2023-10-08T04:59:52.578Z,16.29
2023-10-08T05:00:45.208Z,16.31
2023-10-08T05:02:10.876Z,16.34
2023-10-08T05:02:51.799Z,16.32
2023-10-08T05:03:35.676Z,16.41
2023-10-08T05:04:25.855Z,16.41
2023-10-08T05:05:12.810Z,16.43
2023-10-08T05:05:57.130Z,16.42
2023-10-08T05:07:22.567Z,16.41
2023-10-08T05:08:18.658Z,16.41
2023-10-08T05:09:24.705Z,16.37
2023-10-08T05:10:09.404Z,16.42
2023-10-08T05:11:02.482Z,16.39
2023-10-08T05:11:55.241Z,16.38
2023-10-08T05:12:47.202Z,16.45
2023-10-08T05:14:18.699Z,16.42
2023-10-08T05:15:11.035Z,16.44
2023-10-08T05:16:22.660Z,16.44
2023-10-08T05:17:16.903Z,16.53
2023-10-08T05:17:53.246Z,16.49
2023-10-08T05:18:47.086Z,16.49
2023-10-08T05:19:39.098Z,16.47
2023-10-08T05:20:33.272Z,16.49
2023-10-08T05:21:27.267Z,16.51
2023-10-08T05:22:19.654Z,16.56
2023-10-08T05:23:12.732Z,16.55
2023-10-08T05:24:29.170Z,16.53
2023-10-08T05:25:09.546Z,16.54
2023-10-08T05:26:11.923Z,16.59
2023-10-08T05:26:51.024Z,16.66
2023-10-08T05:27:58.257Z,16.72
2023-10-08T05:28:59.331Z,16.73
2023-10-08T05:30:02.273Z,16.77
2023-10-08T05:31:19.438Z,16.75
2023-10-08T05:32:14.742Z,16.81
2023-10-08T05:33:06.951Z,16.81
2023-10-08T05:34:25.008Z,16.86
2023-10-08T05:35:20.994Z,16.90
2023-10-08T05:36:04.390Z,16.95
2023-10-08T05:36:52.805Z,16.93
2023-10-08T05:37:43.311Z,16.95
2023-10-08T05:39:02.266Z,16.98
2023-10-08T05:40:22.848Z,17.01
2023-10-08T05:41:00.066Z,17.10
2023-10-08T05:41:53.078Z,17.13
2023-10-08T05:42:31.116Z,17.16
2023-10-08T05:43:24.113Z,17.19
2023-10-08T05:44:41.599Z,17.24
2023-10-08T05:46:09.750Z,17.28
2023-10-08T05:46:56.481Z,17.36
2023-10-08T05:47:30.169Z,17.39
2023-10-08T05:48:14.770Z,17.43
2023-10-08T05:48:48.040Z,17.42
2023-10-08T05:49:34.525Z,17.41
2023-10-08T05:50:40.028Z,17.44
2023-10-08T05:51:25.207Z,17.51
2023-10-08T05:52:03.675Z,17.53
2023-10-08T05:52:56.192Z,17.53
2023-10-08T05:53:45.085Z,17.59
2023-10-08T05:54:31.432Z,17.60
2023-10-08T05:55:48.943Z,17.70
2023-10-08T05:56:30.619Z,17.74
2023-10-08T05:57:12.443Z,17.72
2023-10-08T05:57:53.645Z,17.80
2023-10-08T05:59:15.910Z,17.82
2023-10-08T05:59:59.029Z,17.85
2023-10-08T06:00:34.059Z,17.88
2023-10-08T06:01:27.752Z,17.90
2023-10-08T06:02:09.091Z,17.98
2023-10-08T06:03:58.281Z,17.99
2023-10-08T06:04:54.821Z,18.04
2023-10-08T06:05:34.457Z,18.04
2023-10-08T06:06:12.482Z,18.02
2023-10-08T06:06:58.975Z,18.05
2023-10-08T06:07:49.057Z,18.11
2023-10-08T06:08:44.545Z,18.16
2023-10-08T06:09:22.957Z,18.21
2023-10-08T06:10:31.871Z,18.13
2023-10-08T06:11:19.181Z,18.18
2023-10-08T06:12:08.166Z,18.26
2023-10-08T06:12:51.242Z,18.29
2023-10-08T06:14:04.374Z,18.28
2023-10-08T06:15:13.542Z,18.29
2023-10-08T06:16:07.065Z,18.37
2023-10-08T06:16:45.049Z,18.40
2023-10-08T06:17:37.094Z,18.45
2023-10-08T06:18:16.361Z,18.52
2023-10-08T06:18:52.087Z,18.58
2023-10-08T06:19:27.561Z,18.59
2023-10-08T06:20:12.117Z,18.66
2023-10-08T06:20:48.716Z,18.69
2023-10-08T06:21:22.591Z,18.72
2023-10-08T06:22:31.643Z,18.73
2023-10-08T06:23:38.642Z,18.81
2023-10-08T06:24:45.937Z,18.93
2023-10-08T06:25:24.615Z,18.94
2023-10-08T06:26:12.042Z,18.93
2023-10-08T06:26:50.311Z,18.98
2023-10-08T06:27:26.710Z,19.00
2023-10-08T06:28:00.669Z,19.01
2023-10-08T06:28:36.405Z,18.99
2023-10-08T06:29:20.219Z,18.97
2023-10-08T06:29:56.463Z,19.01
2023-10-08T06:30:36.619Z,19.01
2023-10-08T06:31:17.678Z,18.97
2023-10-08T06:32:03.442Z,19.08
2023-10-08T06:32:38.950Z,19.17
2023-10-08T06:33:12.799Z,19.19
2023-10-08T06:33:49.998Z,19.27
2023-10-08T06:34:29.267Z,19.20
2023-10-08T06:35:04.879Z,19.27
2023-10-08T06:35:38.880Z,19.31
2023-10-08T06:36:15.005Z,19.37
2023-10-08T06:36:57.160Z,19.37
2023-10-08T06:38:08.769Z,19.50
2023-10-08T06:38:45.368Z,19.50
2023-10-08T06:39:26.999Z,19.52
2023-10-08T06:40:02.598Z,19.53
2023-10-08T06:40:38.629Z,19.58
2023-10-08T06:41:14.541Z,19.72
2023-10-08T06:41:58.495Z,19.65
2023-10-08T06:42:36.543Z,19.79
2023-10-08T06:43:25.979Z,19.91
2023-10-08T06:44:32.898Z,19.91
2023-10-08T06:45:10.891Z,20.00
2023-10-08T06:45:48.411Z,20.01
2023-10-08T06:46:22.806Z,19.98
2023-10-08T06:46:58.157Z,20.07
2023-10-08T06:47:31.997Z,20.12
2023-10-08T06:48:05.302Z,20.05
2023-10-08T06:48:39.529Z,20.04
2023-10-08T06:49:15.603Z,20.09
2023-10-08T06:49:53.180Z,20.15
2023-10-08T06:50:28.634Z,20.13
2023-10-08T06:51:14.674Z,20.05
2023-10-08T06:51:49.695Z,20.06
2023-10-08T06:52:24.981Z,20.05
2023-10-08T06:52:58.731Z,19.94
2023-10-08T06:53:35.484Z,19.99
2023-10-08T06:54:15.870Z,19.98
2023-10-08T06:54:54.506Z,19.98
2023-10-08T06:55:29.654Z,20.00
2023-10-08T06:56:08.947Z,19.99
2023-10-08T06:56:48.158Z,19.91
2023-10-08T06:57:28.186Z,19.82
2023-10-08T06:58:09.251Z,19.74
2023-10-08T06:58:54.271Z,19.74
2023-10-08T07:00:04.178Z,19.66
2023-10-08T07:00:41.510Z,19.69
2023-10-08T07:01:22.765Z,19.73
2023-10-08T07:01:55.794Z,19.76
2023-10-08T07:02:29.907Z,19.63
2023-10-08T07:03:07.390Z,19.61
2023-10-08T07:03:58.070Z,19.59
2023-10-08T07:04:30.847Z,19.57
2023-10-08T07:05:42.700Z,19.49
2023-10-08T07:06:32.836Z,19.61
2023-10-08T07:07:10.839Z,19.70
2023-10-08T07:07:46.604Z,19.69
2023-10-08T07:08:24.675Z,19.79
2023-10-08T07:09:00.715Z,19.82
2023-10-08T07:10:05.810Z,19.78
2023-10-08T07:11:13.161Z,19.83
2023-10-08T07:11:46.986Z,19.81
2023-10-08T07:12:26.048Z,19.85
2023-10-08T07:13:04.212Z,19.92
2023-10-08T07:13:38.690Z,20.00
2023-10-08T07:14:15.128Z,20.06
2023-10-08T07:14:48.004Z,20.03
2023-10-08T07:15:54.445Z,20.01
2023-10-08T07:16:29.628Z,20.08
2023-10-08T07:17:09.557Z,20.08
2023-10-08T07:17:44.307Z,20.00
2023-10-08T07:18:28.862Z,20.10
2023-10-08T07:19:05.053Z,20.15
2023-10-08T07:19:42.081Z,20.09
2023-10-08T07:20:22.751Z,20.19
2023-10-08T07:21:02.302Z,20.20
2023-10-08T07:21:58.955Z,20.16
2023-10-08T07:22:35.008Z,20.18
2023-10-08T07:23:13.868Z,20.19
2023-10-08T07:24:23.083Z,20.34
2023-10-08T07:24:58.744Z,20.31
2023-10-08T07:25:38.318Z,20.28
2023-10-08T07:26:13.133Z,20.20
2023-10-08T07:27:41.942Z,20.41
2023-10-08T07:28:20.854Z,20.77
2023-10-08T07:28:54.933Z,21.05
2023-10-08T07:30:33.821Z,21.42
2023-10-08T07:31:18.855Z,21.39
2023-10-08T07:31:54.251Z,21.53
2023-10-08T07:32:32.079Z,21.72
2023-10-08T07:33:05.412Z,21.81
2023-10-08T07:34:19.438Z,22.00
2023-10-08T07:34:58.981Z,21.88
2023-10-08T07:36:13.814Z,22.25
2023-10-08T07:36:48.707Z,22.43
2023-10-08T07:37:21.623Z,22.51
2023-10-08T07:37:56.187Z,22.56
2023-10-08T07:38:31.453Z,22.59
2023-10-08T07:39:09.450Z,22.15
2023-10-08T07:39:51.200Z,22.00
2023-10-08T07:40:29.366Z,21.94
2023-10-08T07:41:02.511Z,22.02
2023-10-08T07:41:35.154Z,22.12
2023-10-08T07:42:41.499Z,21.98
2023-10-08T07:43:14.006Z,21.91
2023-10-08T07:44:12.560Z,22.06
2023-10-08T07:44:45.408Z,22.14
2023-10-08T07:45:23.652Z,22.10
2023-10-08T07:45:55.682Z,21.87
2023-10-08T07:46:28.121Z,21.66
2023-10-08T07:47:01.073Z,21.72
2023-10-08T07:48:12.301Z,21.99
2023-10-08T07:48:44.977Z,21.88
2023-10-08T07:49:17.031Z,21.79
2023-10-08T07:49:49.039Z,21.92
2023-10-08T07:50:21.456Z,21.87
2023-10-08T07:51:26.813Z,22.11
2023-10-08T07:52:02.291Z,21.90
2023-10-08T07:53:07.442Z,22.09
2023-10-08T07:53:39.397Z,22.12
2023-10-08T07:54:17.732Z,21.97
2023-10-08T07:55:28.614Z,22.08
2023-10-08T07:56:01.686Z,22.12
2023-10-08T07:56:33.749Z,22.09
2023-10-08T07:57:14.151Z,22.17
2023-10-08T07:58:23.317Z,22.25
2023-10-08T07:58:58.078Z,22.33
2023-10-08T07:59:30.287Z,22.25
2023-10-08T08:00:24.953Z,22.27
2023-10-08T08:01:35.374Z,22.47
2023-10-08T08:02:13.982Z,22.46
2023-10-08T08:02:47.164Z,22.43
2023-10-08T08:03:21.875Z,22.14
2023-10-08T08:04:34.702Z,22.04
2023-10-08T08:05:08.278Z,22.20
2023-10-08T08:05:50.356Z,22.38
2023-10-08T08:06:35.190Z,22.31
2023-10-08T08:08:42.543Z,22.80
2023-10-08T08:09:21.014Z,22.87
2023-10-08T08:10:01.153Z,22.78
2023-10-08T08:10:40.131Z,22.91
2023-10-08T08:11:18.923Z,22.91
2023-10-08T08:11:51.296Z,23.02
2023-10-08T08:12:26.824Z,23.10
2023-10-08T08:13:02.990Z,23.16
2023-10-08T08:13:48.236Z,23.23
2023-10-08T08:14:55.841Z,23.13
2023-10-08T08:15:30.829Z,23.28
2023-10-08T08:17:24.088Z,23.34
2023-10-08T08:18:35.910Z,23.52
2023-10-08T08:19:11.407Z,23.69
2023-10-08T08:19:45.970Z,23.77
2023-10-08T08:20:52.082Z,23.87
2023-10-08T08:21:27.087Z,23.92
2023-10-08T08:22:04.241Z,23.83
2023-10-08T08:22:42.761Z,23.72
2023-10-08T08:23:18.109Z,23.71
2023-10-08T08:23:51.640Z,23.69
2023-10-08T08:24:46.261Z,23.75
2023-10-08T08:25:27.948Z,23.65
2023-10-08T08:27:04.353Z,23.54
2023-10-08T08:27:42.849Z,23.89
2023-10-08T08:28:33.413Z,23.96
2023-10-08T08:30:24.299Z,24.01
2023-10-08T08:30:59.099Z,23.68
2023-10-08T08:31:37.094Z,23.79
2023-10-08T08:32:09.401Z,23.91
2023-10-08T08:33:23.325Z,23.88
2023-10-08T08:34:51.983Z,24.00
2023-10-08T08:35:25.706Z,24.13
2023-10-08T08:36:02.180Z,23.89
2023-10-08T08:36:34.643Z,24.02
2023-10-08T08:37:41.206Z,24.32
2023-10-08T08:38:13.737Z,24.40
2023-10-08T08:39:42.994Z,24.16
2023-10-08T08:40:26.467Z,24.12
2023-10-08T08:41:13.542Z,23.96
2023-10-08T08:41:46.340Z,23.98
2023-10-08T08:42:21.479Z,24.13
2023-10-08T08:42:54.199Z,24.13
2023-10-08T08:43:27.487Z,24.04
2023-10-08T08:44:00.362Z,24.06
2023-10-08T08:46:16.612Z,23.91
2023-10-08T08:46:50.328Z,23.87
2023-10-08T08:47:26.362Z,23.69
2023-10-08T08:47:58.998Z,23.78
2023-10-08T08:49:09.038Z,23.89
2023-10-08T08:49:44.318Z,23.90
2023-10-08T08:50:19.138Z,23.83
2023-10-08T08:50:51.373Z,23.86
2023-10-08T08:52:02.972Z,23.76
2023-10-08T08:52:39.903Z,23.73
2023-10-08T08:53:13.125Z,23.81
2023-10-08T08:53:47.929Z,23.87
2023-10-08T08:54:56.793Z,23.80
2023-10-08T08:55:33.993Z,23.84
2023-10-08T08:56:40.201Z,23.79
2023-10-08T08:57:51.084Z,23.80
2023-10-08T08:58:57.815Z,23.96
2023-10-08T08:59:31.652Z,23.96
2023-10-08T09:00:11.613Z,23.92
2023-10-08T09:00:48.908Z,23.75
2023-10-08T09:01:27.336Z,23.61
2023-10-08T09:02:03.345Z,23.71
2023-10-08T09:03:14.613Z,23.73
2023-10-08T09:03:52.478Z,23.81
2023-10-08T09:04:39.042Z,23.83
2023-10-08T09:05:32.181Z,23.97
2023-10-08T09:06:06.046Z,23.98
2023-10-08T09:06:41.965Z,23.97
2023-10-08T09:07:24.969Z,24.02
2023-10-08T09:08:06.961Z,24.07
2023-10-08T09:09:25.878Z,23.98
2023-10-08T09:11:06.170Z,24.07
2023-10-08T09:11:46.198Z,24.25
2023-10-08T09:12:23.247Z,24.28
2023-10-08T09:13:02.985Z,24.21
2023-10-08T09:13:37.481Z,24.14
2023-10-08T09:14:12.293Z,24.14
2023-10-08T09:14:47.652Z,24.14
2023-10-08T09:15:24.270Z,24.04
2023-10-08T09:16:08.216Z,24.15
2023-10-08T09:16:42.600Z,24.30
2023-10-08T09:17:16.517Z,24.24
2023-10-08T09:18:06.664Z,24.13
2023-10-08T09:18:42.549Z,24.22
2023-10-08T09:19:48.975Z,24.24
2023-10-08T09:20:21.951Z,24.25
2023-10-08T09:20:54.869Z,24.38
2023-10-08T09:22:12.400Z,24.34
2023-10-08T09:22:46.081Z,24.45
2023-10-08T09:23:25.338Z,24.51
2023-10-08T09:24:31.953Z,24.42
2023-10-08T09:25:09.667Z,24.44
2023-10-08T09:26:23.595Z,24.52
2023-10-08T09:26:57.434Z,24.61
2023-10-08T09:27:32.238Z,24.54